Impacts TAF Board
For situational awareness. Not to be used for flight planning purposes.
IDs:

KIAH - Houston/Bush Intl, TX, US

Issued at 0528 UTC 01 Dec 2022
Updated at 0600 UTC 01 Dec 2022
Potential Impact None Slight Moderate High
Time0553Z 01/06Z 01/07Z 01/08Z 01/09Z 01/10Z 01/11Z 01/12Z 01/13Z 01/14Z 01/15Z 01/16Z 01/17Z 01/18Z>>
Type OBS PRVL PRVL PRVL PRVL PRVL PRVL PRVL PRVL PRVL PRVL PRVL PRVL PRVL
VIS 10 >6 >6 >6 >6 >6 >6 >6 >6 >6 >6 >6 >6 >6
CIG -- -- -- -- -- -- -- -- -- -- -- -- -- --
Cover FEW SKC SKC SKC SKC SKC SKC SKC SKC SKC SKC SKC SCT SCT
FltCat VFR VFR VFR VFR VFR VFR VFR VFR VFR VFR VFR VFR VFR VFR
WX -- -- -- -- -- -- -- -- -- -- -- -- -- --
WDir 50 60 60 60 60 60 60 60 60 60 60 60 110 110
WSpd 5 9 9 9 9 9 9 9 9 9 9 9 7 7
WGst -- -- -- -- -- -- -- -- -- -- -- -- -- --
WSHgt -- -- -- -- -- -- -- -- -- -- -- -- -- --
WSDir -- -- -- -- -- -- -- -- -- -- -- -- -- --
WSSpd -- -- -- -- -- -- -- -- -- -- -- -- -- --
R08/26
XWnd 3 5 5 5 5 5 5 5 5 5 5 5 -2 -2
HWnd 4 8 8 8 8 8 8 8 8 8 8 8 7 7
R09/27
XWnd 3 5 5 5 5 5 5 5 5 5 5 5 -2 -2
HWnd 4 8 8 8 8 8 8 8 8 8 8 8 7 7
R15/33
XWnd 5 9 9 9 9 9 9 9 9 9 9 9 5 5
HWnd -1 -0 -0 -0 -0 -0 -0 -0 -0 -0 -0 -0 5 5
Raw TAF
KIAH 010528Z 0106/0212 06009KT P6SM SKC
  FM011700 11007KT P6SM SCT030
  FM012100 11009KT P6SM BKN035
  FM021000 09006KT P6SM BKN025


Raw METAR
KIAH 010553Z 05005KT 10SM FEW250 08/01 A3035 RMK AO2 SLP276 T00780011 10133 20078 402280078 56005
KIAH 010453Z 03006KT 10SM FEW250 09/01 A3035 RMK AO2 SLP278 T00890006
KIAH 010353Z 06009KT 10SM CLR 09/01 A3035 RMK AO2 SLP279 T00940006
KIAH 010253Z 03006KT 10SM CLR 10/01 A3036 RMK AO2 SLP282 T01000006 51014

METAR Board
Radar Display
Forecast Discussion
For situational awareness. Not to be used for flight planning purposes.